sensor_id;sensor_type;location;lat;lon;timestamp;pressure;altitude;pressure_sealevel;temperature;humidity
60817;BME280;51921;51.518;-3.188;2023-02-26T00:00:23;102015.94;;;-1.63;100.00
60817;BME280;51921;51.518;-3.188;2023-02-26T00:02:49;102013.26;;;-1.61;100.00
60817;BME280;51921;51.518;-3.188;2023-02-26T00:05:15;102019.89;;;-1.33;100.00
60817;BME280;51921;51.518;-3.188;2023-02-26T00:07:41;102014.22;;;-1.60;100.00
60817;BME280;51921;51.518;-3.188;2023-02-26T00:10:07;102010.69;;;-1.82;100.00
60817;BME280;51921;51.518;-3.188;2023-02-26T00:12:32;102017.88;;;-1.33;100.00
60817;BME280;51921;51.518;-3.188;2023-02-26T00:14:58;102017.33;;;-1.56;100.00
60817;BME280;51921;51.518;-3.188;2023-02-26T00:17:31;102018.98;;;-1.18;100.00
60817;BME280;51921;51.518;-3.188;2023-02-26T00:19:48;102021.37;;;-1.18;100.00
60817;BME280;51921;51.518;-3.188;2023-02-26T00:22:14;102019.74;;;-1.30;100.00
60817;BME280;51921;51.518;-3.188;2023-02-26T00:24:39;102017.48;;;-1.68;100.00
60817;BME280;51921;51.518;-3.188;2023-02-26T00:27:04;102015.89;;;-1.64;100.00
60817;BME280;51921;51.518;-3.188;2023-02-26T00:29:35;102017.88;;;-1.44;100.00
60817;BME280;51921;51.518;-3.188;2023-02-26T00:31:56;102023.16;;;-1.96;100.00
60817;BME280;51921;51.518;-3.188;2023-02-26T00:34:22;102022.31;;;-1.71;100.00
60817;BME280;51921;51.518;-3.188;2023-02-26T00:36:55;102021.16;;;-1.63;100.00
60817;BME280;51921;51.518;-3.188;2023-02-26T00:39:24;102014.20;;;-1.29;100.00
60817;BME280;51921;51.518;-3.188;2023-02-26T00:41:39;102016.02;;;-1.33;100.00
60817;BME280;51921;51.518;-3.188;2023-02-26T00:44:05;102022.45;;;-1.55;100.00
60817;BME280;51921;51.518;-3.188;2023-02-26T00:46:37;102021.86;;;-1.73;100.00
60817;BME280;51921;51.518;-3.188;2023-02-26T00:49:09;102028.81;;;-1.65;100.00
60817;BME280;51921;51.518;-3.188;2023-02-26T00:51:28;102027.66;;;-1.73;100.00
60817;BME280;51921;51.518;-3.188;2023-02-26T00:53:53;102021.24;;;-1.69;100.00
60817;BME280;51921;51.518;-3.188;2023-02-26T00:56:13;102027.02;;;-1.58;100.00
60817;BME280;51921;51.518;-3.188;2023-02-26T00:58:38;102026.19;;;-1.63;100.00
60817;BME280;51921;51.518;-3.188;2023-02-26T01:01:04;102032.69;;;-1.77;100.00
60817;BME280;51921;51.518;-3.188;2023-02-26T01:03:31;102037.69;;;-1.76;100.00
60817;BME280;51921;51.518;-3.188;2023-02-26T01:05:55;102042.71;;;-1.54;100.00
60817;BME280;51921;51.518;-3.188;2023-02-26T01:08:25;102051.44;;;-1.79;100.00
60817;BME280;51921;51.518;-3.188;2023-02-26T01:10:47;102042.98;;;-1.85;100.00
60817;BME280;51921;51.518;-3.188;2023-02-26T01:13:13;102047.28;;;-1.79;100.00
60817;BME280;51921;51.518;-3.188;2023-02-26T01:15:39;102048.52;;;-1.71;100.00
60817;BME280;51921;51.518;-3.188;2023-02-26T01:18:07;102045.97;;;-1.54;100.00
60817;BME280;51921;51.518;-3.188;2023-02-26T01:20:33;102059.95;;;-1.81;100.00
60817;BME280;51921;51.518;-3.188;2023-02-26T01:23:00;102055.64;;;-1.91;100.00
60817;BME280;51921;51.518;-3.188;2023-02-26T01:25:24;102051.56;;;-1.73;100.00
60817;BME280;51921;51.518;-3.188;2023-02-26T01:27:46;102056.63;;;-1.64;100.00
60817;BME280;51921;51.518;-3.188;2023-02-26T01:30:12;102054.69;;;-1.84;100.00
60817;BME280;51921;51.518;-3.188;2023-02-26T01:32:42;102061.98;;;-1.75;100.00
60817;BME280;51921;51.518;-3.188;2023-02-26T01:35:06;102055.82;;;-1.89;100.00
60817;BME280;51921;51.518;-3.188;2023-02-26T01:37:34;102056.48;;;-1.93;100.00
60817;BME280;51921;51.518;-3.188;2023-02-26T01:40:02;102057.05;;;-1.96;100.00
60817;BME280;51921;51.518;-3.188;2023-02-26T01:42:21;102060.65;;;-1.72;100.00
60817;BME280;51921;51.518;-3.188;2023-02-26T01:44:54;102066.48;;;-1.87;100.00
60817;BME280;51921;51.518;-3.188;2023-02-26T01:47:16;102062.03;;;-1.52;100.00
60817;BME280;51921;51.518;-3.188;2023-02-26T01:49:36;102066.58;;;-1.65;100.00
60817;BME280;51921;51.518;-3.188;2023-02-26T01:52:02;102069.04;;;-1.89;100.00
60817;BME280;51921;51.518;-3.188;2023-02-26T01:54:30;102075.33;;;-1.87;100.00
60817;BME280;51921;51.518;-3.188;2023-02-26T01:56:56;102082.64;;;-1.79;100.00
60817;BME280;51921;51.518;-3.188;2023-02-26T01:59:19;102080.84;;;-2.26;100.00
60817;BME280;51921;51.518;-3.188;2023-02-26T02:01:44;102091.09;;;-1.97;100.00
60817;BME280;51921;51.518;-3.188;2023-02-26T02:04:12;102080.87;;;-1.82;100.00
60817;BME280;51921;51.518;-3.188;2023-02-26T02:06:35;102081.44;;;-1.99;100.00
60817;BME280;51921;51.518;-3.188;2023-02-26T02:09:03;102082.02;;;-1.90;100.00
60817;BME280;51921;51.518;-3.188;2023-02-26T02:11:26;102077.36;;;-2.06;100.00
60817;BME280;51921;51.518;-3.188;2023-02-26T02:14:02;102079.67;;;-1.89;100.00
60817;BME280;51921;51.518;-3.188;2023-02-26T02:16:26;102086.95;;;-2.08;100.00
60817;BME280;51921;51.518;-3.188;2023-02-26T02:18:52;102083.00;;;-1.98;100.00
60817;BME280;51921;51.518;-3.188;2023-02-26T02:21:23;102086.68;;;-1.93;100.00
60817;BME280;51921;51.518;-3.188;2023-02-26T02:23:38;102087.80;;;-2.05;100.00
60817;BME280;51921;51.518;-3.188;2023-02-26T02:26:17;102091.12;;;-2.25;100.00
60817;BME280;51921;51.518;-3.188;2023-02-26T02:28:35;102092.19;;;-2.13;100.00
60817;BME280;51921;51.518;-3.188;2023-02-26T02:30:57;102083.01;;;-2.19;100.00
60817;BME280;51921;51.518;-3.188;2023-02-26T02:33:21;102089.18;;;-2.52;100.00
60817;BME280;51921;51.518;-3.188;2023-02-26T02:35:47;102095.85;;;-2.23;100.00
60817;BME280;51921;51.518;-3.188;2023-02-26T02:38:14;102101.83;;;-2.06;100.00
60817;BME280;51921;51.518;-3.188;2023-02-26T02:40:38;102100.79;;;-2.34;100.00
60817;BME280;51921;51.518;-3.188;2023-02-26T02:43:07;102104.52;;;-2.51;100.00
60817;BME280;51921;51.518;-3.188;2023-02-26T02:45:31;102099.15;;;-2.25;100.00
60817;BME280;51921;51.518;-3.188;2023-02-26T02:47:55;102100.66;;;-2.28;100.00
60817;BME280;51921;51.518;-3.188;2023-02-26T02:50:21;102097.88;;;-2.73;100.00
60817;BME280;51921;51.518;-3.188;2023-02-26T02:52:47;102093.65;;;-2.14;100.00
60817;BME280;51921;51.518;-3.188;2023-02-26T02:55:12;102097.20;;;-2.37;100.00
60817;BME280;51921;51.518;-3.188;2023-02-26T02:57:37;102094.81;;;-2.44;100.00
60817;BME280;51921;51.518;-3.188;2023-02-26T03:00:02;102099.38;;;-2.32;100.00
60817;BME280;51921;51.518;-3.188;2023-02-26T03:02:29;102096.27;;;-2.43;100.00
60817;BME280;51921;51.518;-3.188;2023-02-26T03:04:51;102098.43;;;-2.42;100.00
60817;BME280;51921;51.518;-3.188;2023-02-26T03:07:17;102103.60;;;-2.29;100.00
60817;BME280;51921;51.518;-3.188;2023-02-26T03:09:43;102109.91;;;-2.28;100.00
60817;BME280;51921;51.518;-3.188;2023-02-26T03:12:08;102107.73;;;-2.30;100.00
60817;BME280;51921;51.518;-3.188;2023-02-26T03:14:33;102114.08;;;-2.55;100.00
60817;BME280;51921;51.518;-3.188;2023-02-26T03:17:08;102112.49;;;-2.60;100.00
60817;BME280;51921;51.518;-3.188;2023-02-26T03:19:30;102105.03;;;-2.29;100.00
60817;BME280;51921;51.518;-3.188;2023-02-26T03:21:55;102112.20;;;-2.51;100.00
60817;BME280;51921;51.518;-3.188;2023-02-26T03:24:21;102109.49;;;-2.58;100.00
60817;BME280;51921;51.518;-3.188;2023-02-26T03:26:44;102107.93;;;-2.44;100.00
60817;BME280;51921;51.518;-3.188;2023-02-26T03:29:12;102108.05;;;-2.72;100.00
60817;BME280;51921;51.518;-3.188;2023-02-26T03:31:39;102115.49;;;-2.70;100.00
60817;BME280;51921;51.518;-3.188;2023-02-26T03:34:02;102111.35;;;-2.46;100.00
60817;BME280;51921;51.518;-3.188;2023-02-26T03:36:31;102116.64;;;-2.77;100.00
60817;BME280;51921;51.518;-3.188;2023-02-26T03:38:55;102118.76;;;-2.65;100.00
60817;BME280;51921;51.518;-3.188;2023-02-26T03:41:21;102120.06;;;-2.84;100.00
60817;BME280;51921;51.518;-3.188;2023-02-26T03:43:46;102114.17;;;-2.58;100.00
60817;BME280;51921;51.518;-3.188;2023-02-26T03:46:12;102118.36;;;-2.78;100.00
60817;BME280;51921;51.518;-3.188;2023-02-26T03:48:34;102128.21;;;-2.46;100.00
60817;BME280;51921;51.518;-3.188;2023-02-26T03:51:04;102131.84;;;-2.44;100.00
60817;BME280;51921;51.518;-3.188;2023-02-26T03:53:27;102130.42;;;-2.66;100.00
60817;BME280;51921;51.518;-3.188;2023-02-26T03:55:56;102138.29;;;-2.37;100.00
60817;BME280;51921;51.518;-3.188;2023-02-26T03:58:16;102142.23;;;-2.40;100.00
60817;BME280;51921;51.518;-3.188;2023-02-26T04:00:44;102141.77;;;-2.53;100.00
60817;BME280;51921;51.518;-3.188;2023-02-26T04:03:11;102147.88;;;-2.45;100.00
60817;BME280;51921;51.518;-3.188;2023-02-26T04:05:36;102150.51;;;-2.83;100.00
60817;BME280;51921;51.518;-3.188;2023-02-26T04:07:59;102151.03;;;-2.63;100.00
60817;BME280;51921;51.518;-3.188;2023-02-26T04:10:29;102148.42;;;-2.57;100.00
60817;BME280;51921;51.518;-3.188;2023-02-26T04:12:50;102156.21;;;-2.37;100.00
60817;BME280;51921;51.518;-3.188;2023-02-26T04:15:16;102150.54;;;-2.70;100.00
60817;BME280;51921;51.518;-3.188;2023-02-26T04:17:41;102151.58;;;-2.89;100.00
60817;BME280;51921;51.518;-3.188;2023-02-26T04:20:08;102154.14;;;-2.74;100.00
60817;BME280;51921;51.518;-3.188;2023-02-26T04:22:33;102154.84;;;-2.47;100.00
60817;BME280;51921;51.518;-3.188;2023-02-26T04:24:59;102161.35;;;-2.53;100.00
60817;BME280;51921;51.518;-3.188;2023-02-26T04:27:24;102162.83;;;-2.78;100.00
60817;BME280;51921;51.518;-3.188;2023-02-26T04:29:50;102159.88;;;-2.97;100.00
60817;BME280;51921;51.518;-3.188;2023-02-26T04:32:15;102155.11;;;-2.74;100.00
60817;BME280;51921;51.518;-3.188;2023-02-26T04:34:41;102159.52;;;-2.84;100.00
60817;BME280;51921;51.518;-3.188;2023-02-26T04:37:07;102166.55;;;-2.80;100.00
60817;BME280;51921;51.518;-3.188;2023-02-26T04:39:33;102167.91;;;-2.86;100.00
60817;BME280;51921;51.518;-3.188;2023-02-26T04:41:58;102169.97;;;-3.10;100.00
60817;BME280;51921;51.518;-3.188;2023-02-26T04:44:24;102174.26;;;-2.87;100.00
60817;BME280;51921;51.518;-3.188;2023-02-26T04:46:50;102178.93;;;-2.89;100.00
60817;BME280;51921;51.518;-3.188;2023-02-26T04:49:16;102182.15;;;-2.99;100.00
60817;BME280;51921;51.518;-3.188;2023-02-26T04:51:41;102183.44;;;-2.98;100.00
60817;BME280;51921;51.518;-3.188;2023-02-26T04:54:07;102182.06;;;-2.98;100.00
60817;BME280;51921;51.518;-3.188;2023-02-26T04:56:33;102190.15;;;-2.53;100.00
60817;BME280;51921;51.518;-3.188;2023-02-26T04:58:58;102193.37;;;-2.94;100.00
60817;BME280;51921;51.518;-3.188;2023-02-26T05:01:27;102189.13;;;-2.82;100.00
60817;BME280;51921;51.518;-3.188;2023-02-26T05:03:50;102192.50;;;-2.93;100.00
60817;BME280;51921;51.518;-3.188;2023-02-26T05:06:15;102205.09;;;-2.66;100.00
60817;BME280;51921;51.518;-3.188;2023-02-26T05:08:42;102202.05;;;-2.93;100.00
60817;BME280;51921;51.518;-3.188;2023-02-26T05:11:07;102202.90;;;-3.09;100.00
60817;BME280;51921;51.518;-3.188;2023-02-26T05:13:33;102206.28;;;-3.07;100.00
60817;BME280;51921;51.518;-3.188;2023-02-26T05:15:58;102203.18;;;-3.08;100.00
60817;BME280;51921;51.518;-3.188;2023-02-26T05:18:24;102203.84;;;-2.91;100.00
60817;BME280;51921;51.518;-3.188;2023-02-26T05:20:52;102207.60;;;-3.07;100.00
60817;BME280;51921;51.518;-3.188;2023-02-26T05:23:16;102215.24;;;-3.06;100.00
60817;BME280;51921;51.518;-3.188;2023-02-26T05:25:41;102212.72;;;-2.59;100.00
60817;BME280;51921;51.518;-3.188;2023-02-26T05:28:07;102216.53;;;-2.74;100.00
60817;BME280;51921;51.518;-3.188;2023-02-26T05:30:38;102221.25;;;-2.59;100.00
60817;BME280;51921;51.518;-3.188;2023-02-26T05:32:58;102224.70;;;-2.88;100.00
60817;BME280;51921;51.518;-3.188;2023-02-26T05:35:24;102221.80;;;-2.30;100.00
60817;BME280;51921;51.518;-3.188;2023-02-26T05:37:50;102227.26;;;-2.25;100.00
60817;BME280;51921;51.518;-3.188;2023-02-26T05:40:16;102221.53;;;-2.84;100.00
60817;BME280;51921;51.518;-3.188;2023-02-26T05:42:41;102224.55;;;-2.45;100.00
60817;BME280;51921;51.518;-3.188;2023-02-26T05:45:08;102231.13;;;-2.53;100.00
60817;BME280;51921;51.518;-3.188;2023-02-26T05:47:33;102226.80;;;-2.69;100.00
60817;BME280;51921;51.518;-3.188;2023-02-26T05:49:58;102225.46;;;-2.37;100.00
60817;BME280;51921;51.518;-3.188;2023-02-26T05:52:24;102225.79;;;-2.96;100.00
60817;BME280;51921;51.518;-3.188;2023-02-26T05:54:50;102224.93;;;-2.42;100.00
60817;BME280;51921;51.518;-3.188;2023-02-26T05:57:15;102232.69;;;-2.76;100.00
60817;BME280;51921;51.518;-3.188;2023-02-26T05:59:41;102231.08;;;-2.50;100.00
60817;BME280;51921;51.518;-3.188;2023-02-26T06:02:07;102243.87;;;-2.79;100.00
60817;BME280;51921;51.518;-3.188;2023-02-26T06:04:33;102242.19;;;-3.02;100.00
60817;BME280;51921;51.518;-3.188;2023-02-26T06:06:58;102251.40;;;-2.91;100.00
60817;BME280;51921;51.518;-3.188;2023-02-26T06:09:24;102253.33;;;-3.13;100.00
60817;BME280;51921;51.518;-3.188;2023-02-26T06:11:50;102262.94;;;-2.72;100.00
60817;BME280;51921;51.518;-3.188;2023-02-26T06:14:16;102261.68;;;-2.87;100.00
60817;BME280;51921;51.518;-3.188;2023-02-26T06:16:41;102265.65;;;-2.67;100.00
60817;BME280;51921;51.518;-3.188;2023-02-26T06:19:07;102265.57;;;-3.10;100.00
60817;BME280;51921;51.518;-3.188;2023-02-26T06:21:33;102268.17;;;-2.95;100.00
60817;BME280;51921;51.518;-3.188;2023-02-26T06:23:58;102269.49;;;-2.97;100.00
60817;BME280;51921;51.518;-3.188;2023-02-26T06:26:24;102266.55;;;-2.79;100.00
60817;BME280;51921;51.518;-3.188;2023-02-26T06:28:49;102270.34;;;-2.80;100.00
60817;BME280;51921;51.518;-3.188;2023-02-26T06:31:15;102270.59;;;-3.06;100.00
60817;BME280;51921;51.518;-3.188;2023-02-26T06:33:41;102267.00;;;-2.93;100.00
60817;BME280;51921;51.518;-3.188;2023-02-26T06:36:07;102273.04;;;-3.01;100.00
60817;BME280;51921;51.518;-3.188;2023-02-26T06:38:32;102275.02;;;-3.25;100.00
60817;BME280;51921;51.518;-3.188;2023-02-26T06:43:24;102280.51;;;-2.87;100.00
60817;BME280;51921;51.518;-3.188;2023-02-26T06:45:49;102277.38;;;-2.87;100.00
60817;BME280;51921;51.518;-3.188;2023-02-26T06:48:14;102284.96;;;-2.99;100.00
60817;BME280;51921;51.518;-3.188;2023-02-26T06:50:40;102287.53;;;-2.57;100.00
60817;BME280;51921;51.518;-3.188;2023-02-26T06:53:06;102283.49;;;-2.74;100.00
60817;BME280;51921;51.518;-3.188;2023-02-26T06:55:31;102278.63;;;-2.65;100.00
60817;BME280;51921;51.518;-3.188;2023-02-26T06:57:57;102290.97;;;-3.04;100.00
60817;BME280;51921;51.518;-3.188;2023-02-26T07:00:24;102291.90;;;-2.72;100.00
60817;BME280;51921;51.518;-3.188;2023-02-26T07:02:49;102302.71;;;-2.83;100.00
60817;BME280;51921;51.518;-3.188;2023-02-26T07:05:14;102307.73;;;-2.96;100.00
60817;BME280;51921;51.518;-3.188;2023-02-26T07:07:40;102319.71;;;-2.86;100.00
60817;BME280;51921;51.518;-3.188;2023-02-26T07:10:07;102308.82;;;-2.96;100.00
60817;BME280;51921;51.518;-3.188;2023-02-26T07:12:31;102319.18;;;-2.73;100.00
60817;BME280;51921;51.518;-3.188;2023-02-26T07:14:57;102310.38;;;-2.70;100.00
60817;BME280;51921;51.518;-3.188;2023-02-26T07:17:23;102316.52;;;-2.87;100.00
60817;BME280;51921;51.518;-3.188;2023-02-26T07:19:50;102320.88;;;-2.66;100.00
60817;BME280;51921;51.518;-3.188;2023-02-26T07:22:14;102320.83;;;-2.69;100.00
60817;BME280;51921;51.518;-3.188;2023-02-26T07:24:39;102323.63;;;-2.73;100.00
60817;BME280;51921;51.518;-3.188;2023-02-26T07:27:05;102328.48;;;-2.73;100.00
60817;BME280;51921;51.518;-3.188;2023-02-26T07:29:31;102332.75;;;-2.44;100.00
60817;BME280;51921;51.518;-3.188;2023-02-26T07:31:56;102337.79;;;-2.70;100.00
60817;BME280;51921;51.518;-3.188;2023-02-26T07:34:21;102335.02;;;-2.83;100.00
60817;BME280;51921;51.518;-3.188;2023-02-26T07:36:47;102340.58;;;-2.81;100.00
60817;BME280;51921;51.518;-3.188;2023-02-26T07:39:13;102344.93;;;-2.95;100.00
60817;BME280;51921;51.518;-3.188;2023-02-26T07:41:38;102351.12;;;-2.77;100.00
60817;BME280;51921;51.518;-3.188;2023-02-26T07:44:09;102356.49;;;-2.55;100.00
60817;BME280;51921;51.518;-3.188;2023-02-26T07:46:29;102360.58;;;-2.63;100.00
60817;BME280;51921;51.518;-3.188;2023-02-26T07:48:55;102350.13;;;-2.67;100.00
60817;BME280;51921;51.518;-3.188;2023-02-26T07:51:21;102357.00;;;-2.92;100.00
60817;BME280;51921;51.518;-3.188;2023-02-26T07:53:46;102352.23;;;-2.76;100.00
60817;BME280;51921;51.518;-3.188;2023-02-26T07:56:12;102355.97;;;-2.58;100.00
60817;BME280;51921;51.518;-3.188;2023-02-26T07:58:38;102359.23;;;-2.73;100.00
60817;BME280;51921;51.518;-3.188;2023-02-26T08:01:03;102354.03;;;-2.68;100.00
60817;BME280;51921;51.518;-3.188;2023-02-26T08:03:29;102353.12;;;-2.69;100.00
60817;BME280;51921;51.518;-3.188;2023-02-26T08:05:54;102364.53;;;-2.53;100.00
60817;BME280;51921;51.518;-3.188;2023-02-26T08:08:20;102355.60;;;-2.52;100.00
60817;BME280;51921;51.518;-3.188;2023-02-26T08:10:46;102362.06;;;-2.73;100.00
60817;BME280;51921;51.518;-3.188;2023-02-26T08:13:11;102369.06;;;-2.54;100.00
60817;BME280;51921;51.518;-3.188;2023-02-26T08:15:37;102361.91;;;-2.30;100.00
60817;BME280;51921;51.518;-3.188;2023-02-26T08:18:03;102370.54;;;-2.50;100.00
60817;BME280;51921;51.518;-3.188;2023-02-26T08:20:28;102382.15;;;-2.45;100.00
60817;BME280;51921;51.518;-3.188;2023-02-26T08:22:54;102379.79;;;-2.58;100.00
60817;BME280;51921;51.518;-3.188;2023-02-26T08:25:20;102385.34;;;-2.50;100.00
60817;BME280;51921;51.518;-3.188;2023-02-26T08:27:45;102396.98;;;-2.40;100.00
60817;BME280;51921;51.518;-3.188;2023-02-26T08:32:37;102394.12;;;-2.47;100.00
60817;BME280;51921;51.518;-3.188;2023-02-26T08:35:02;102394.66;;;-2.34;100.00
60817;BME280;51921;51.518;-3.188;2023-02-26T08:37:28;102400.90;;;-2.25;100.00
60817;BME280;51921;51.518;-3.188;2023-02-26T08:39:54;102403.34;;;-2.40;100.00
60817;BME280;51921;51.518;-3.188;2023-02-26T08:42:20;102400.30;;;-1.91;100.00
60817;BME280;51921;51.518;-3.188;2023-02-26T08:44:45;102411.94;;;-2.11;100.00
60817;BME280;51921;51.518;-3.188;2023-02-26T08:47:11;102409.06;;;-2.25;100.00
60817;BME280;51921;51.518;-3.188;2023-02-26T08:49:38;102420.48;;;-1.98;100.00
60817;BME280;51921;51.518;-3.188;2023-02-26T08:52:03;102416.14;;;-1.94;100.00
60817;BME280;51921;51.518;-3.188;2023-02-26T08:54:28;102408.12;;;-1.64;100.00
60817;BME280;51921;51.518;-3.188;2023-02-26T08:56:54;102410.88;;;-1.70;100.00
60817;BME280;51921;51.518;-3.188;2023-02-26T08:59:19;102421.01;;;-1.90;100.00
60817;BME280;51921;51.518;-3.188;2023-02-26T09:01:45;102415.14;;;-2.03;100.00
60817;BME280;51921;51.518;-3.188;2023-02-26T09:04:10;102416.61;;;-1.89;100.00
60817;BME280;51921;51.518;-3.188;2023-02-26T09:06:36;102423.76;;;-2.01;100.00
60817;BME280;51921;51.518;-3.188;2023-02-26T09:09:03;102423.22;;;-1.71;100.00
60817;BME280;51921;51.518;-3.188;2023-02-26T09:11:28;102432.32;;;-1.70;100.00
60817;BME280;51921;51.518;-3.188;2023-02-26T09:13:53;102437.12;;;-1.50;100.00
60817;BME280;51921;51.518;-3.188;2023-02-26T09:16:19;102439.24;;;-1.82;100.00
60817;BME280;51921;51.518;-3.188;2023-02-26T09:18:46;102444.58;;;-1.91;100.00
60817;BME280;51921;51.518;-3.188;2023-02-26T09:21:10;102446.48;;;-1.41;100.00
60817;BME280;51921;51.518;-3.188;2023-02-26T09:23:36;102452.86;;;-1.56;100.00
60817;BME280;51921;51.518;-3.188;2023-02-26T09:26:01;102447.91;;;-1.63;100.00
60817;BME280;51921;51.518;-3.188;2023-02-26T09:28:27;102456.86;;;-1.61;100.00
60817;BME280;51921;51.518;-3.188;2023-02-26T09:30:54;102464.30;;;-1.02;100.00
60817;BME280;51921;51.518;-3.188;2023-02-26T09:33:19;102455.29;;;-1.43;100.00
60817;BME280;51921;51.518;-3.188;2023-02-26T09:35:46;102457.07;;;-1.25;100.00
60817;BME280;51921;51.518;-3.188;2023-02-26T09:38:09;102459.75;;;-1.31;100.00
60817;BME280;51921;51.518;-3.188;2023-02-26T09:40:41;102462.90;;;-1.10;100.00
60817;BME280;51921;51.518;-3.188;2023-02-26T09:43:14;102461.54;;;-0.88;100.00
60817;BME280;51921;51.518;-3.188;2023-02-26T09:45:30;102463.19;;;-0.66;100.00
60817;BME280;51921;51.518;-3.188;2023-02-26T09:47:53;102480.11;;;-0.94;100.00
60817;BME280;51921;51.518;-3.188;2023-02-26T09:50:20;102468.32;;;-0.43;100.00
60817;BME280;51921;51.518;-3.188;2023-02-26T09:52:48;102473.70;;;-0.90;100.00
60817;BME280;51921;51.518;-3.188;2023-02-26T09:55:12;102472.42;;;-0.79;100.00
60817;BME280;51921;51.518;-3.188;2023-02-26T09:57:36;102475.88;;;-0.48;100.00
60817;BME280;51921;51.518;-3.188;2023-02-26T10:00:02;102481.13;;;-0.52;100.00
60817;BME280;51921;51.518;-3.188;2023-02-26T10:02:35;102480.85;;;-0.40;100.00
60817;BME280;51921;51.518;-3.188;2023-02-26T10:04:59;102488.59;;;-0.45;100.00
60817;BME280;51921;51.518;-3.188;2023-02-26T10:07:26;102492.21;;;-0.49;100.00
60817;BME280;51921;51.518;-3.188;2023-02-26T10:09:53;102500.75;;;-0.26;100.00
60817;BME280;51921;51.518;-3.188;2023-02-26T10:12:12;102501.74;;;0.01;100.00
60817;BME280;51921;51.518;-3.188;2023-02-26T10:14:37;102499.90;;;0.01;100.00
60817;BME280;51921;51.518;-3.188;2023-02-26T10:19:28;102504.49;;;-0.02;100.00
60817;BME280;51921;51.518;-3.188;2023-02-26T10:21:55;102509.62;;;0.09;100.00
60817;BME280;51921;51.518;-3.188;2023-02-26T10:24:20;102511.81;;;0.37;100.00
60817;BME280;51921;51.518;-3.188;2023-02-26T10:26:45;102516.10;;;0.45;100.00
60817;BME280;51921;51.518;-3.188;2023-02-26T10:29:16;102510.76;;;0.42;100.00
60817;BME280;51921;51.518;-3.188;2023-02-26T10:31:37;102511.76;;;0.07;100.00
60817;BME280;51921;51.518;-3.188;2023-02-26T10:34:09;102520.45;;;0.21;100.00
60817;BME280;51921;51.518;-3.188;2023-02-26T10:36:28;102515.07;;;0.50;100.00
60817;BME280;51921;51.518;-3.188;2023-02-26T10:38:57;102519.70;;;0.60;100.00
60817;BME280;51921;51.518;-3.188;2023-02-26T10:41:21;102518.86;;;1.01;100.00
60817;BME280;51921;51.518;-3.188;2023-02-26T10:43:45;102523.35;;;0.60;100.00
60817;BME280;51921;51.518;-3.188;2023-02-26T10:46:17;102526.94;;;0.58;100.00
60817;BME280;51921;51.518;-3.188;2023-02-26T10:48:44;102529.88;;;0.37;100.00
60817;BME280;51921;51.518;-3.188;2023-02-26T10:51:01;102544.64;;;0.18;100.00
60817;BME280;51921;51.518;-3.188;2023-02-26T10:53:26;102538.76;;;0.70;100.00
60817;BME280;51921;51.518;-3.188;2023-02-26T10:55:52;102546.39;;;0.80;100.00
60817;BME280;51921;51.518;-3.188;2023-02-26T10:58:17;102535.53;;;0.53;100.00
60817;BME280;51921;51.518;-3.188;2023-02-26T11:00:43;102543.93;;;1.12;100.00
60817;BME280;51921;51.518;-3.188;2023-02-26T11:03:09;102548.39;;;0.48;100.00
60817;BME280;51921;51.518;-3.188;2023-02-26T11:05:33;102553.99;;;0.38;100.00
60817;BME280;51921;51.518;-3.188;2023-02-26T11:08:02;102558.26;;;0.44;100.00
60817;BME280;51921;51.518;-3.188;2023-02-26T11:10:29;102552.34;;;0.99;100.00
60817;BME280;51921;51.518;-3.188;2023-02-26T11:12:50;102556.44;;;0.27;100.00
60817;BME280;51921;51.518;-3.188;2023-02-26T11:15:17;102552.36;;;0.57;100.00
60817;BME280;51921;51.518;-3.188;2023-02-26T11:17:41;102560.85;;;0.65;100.00
60817;BME280;51921;51.518;-3.188;2023-02-26T11:20:13;102565.74;;;0.55;100.00
60817;BME280;51921;51.518;-3.188;2023-02-26T11:22:33;102558.44;;;1.66;100.00
60817;BME280;51921;51.518;-3.188;2023-02-26T11:24:58;102559.87;;;1.42;100.00
60817;BME280;51921;51.518;-3.188;2023-02-26T11:27:26;102563.04;;;1.62;100.00
60817;BME280;51921;51.518;-3.188;2023-02-26T11:29:54;102565.88;;;1.33;100.00
60817;BME280;51921;51.518;-3.188;2023-02-26T11:32:16;102580.71;;;1.58;100.00
60817;BME280;51921;51.518;-3.188;2023-02-26T11:34:45;102559.97;;;1.53;100.00
60817;BME280;51921;51.518;-3.188;2023-02-26T11:37:06;102566.41;;;1.34;100.00
60817;BME280;51921;51.518;-3.188;2023-02-26T11:39:33;102565.42;;;0.97;100.00
60817;BME280;51921;51.518;-3.188;2023-02-26T11:41:59;102564.90;;;1.04;100.00
60817;BME280;51921;51.518;-3.188;2023-02-26T11:44:31;102563.69;;;1.12;100.00
60817;BME280;51921;51.518;-3.188;2023-02-26T11:46:51;102566.72;;;1.36;100.00
60817;BME280;51921;51.518;-3.188;2023-02-26T11:49:16;102566.03;;;1.25;100.00
60817;BME280;51921;51.518;-3.188;2023-02-26T11:51:42;102569.06;;;1.38;100.00
60817;BME280;51921;51.518;-3.188;2023-02-26T11:54:19;102564.58;;;1.07;100.00
60817;BME280;51921;51.518;-3.188;2023-02-26T11:56:33;102567.90;;;1.32;100.00
60817;BME280;51921;51.518;-3.188;2023-02-26T11:58:59;102570.15;;;2.13;100.00
60817;BME280;51921;51.518;-3.188;2023-02-26T12:01:26;102565.54;;;1.88;100.00
60817;BME280;51921;51.518;-3.188;2023-02-26T12:03:48;102580.83;;;1.27;100.00
60817;BME280;51921;51.518;-3.188;2023-02-26T12:06:16;102577.92;;;1.18;100.00
60817;BME280;51921;51.518;-3.188;2023-02-26T12:08:39;102577.08;;;1.27;100.00
60817;BME280;51921;51.518;-3.188;2023-02-26T12:11:13;102571.89;;;1.32;100.00
60817;BME280;51921;51.518;-3.188;2023-02-26T12:13:34;102572.68;;;1.74;100.00
60817;BME280;51921;51.518;-3.188;2023-02-26T12:15:59;102571.58;;;1.59;100.00
60817;BME280;51921;51.518;-3.188;2023-02-26T12:18:31;102577.00;;;1.27;100.00
60817;BME280;51921;51.518;-3.188;2023-02-26T12:20:55;102567.78;;;1.67;100.00
60817;BME280;51921;51.518;-3.188;2023-02-26T12:23:26;102563.80;;;1.58;100.00
60817;BME280;51921;51.518;-3.188;2023-02-26T12:25:53;102571.45;;;2.02;98.19
60817;BME280;51921;51.518;-3.188;2023-02-26T12:30:43;102568.65;;;2.07;84.12
60817;BME280;51921;51.518;-3.188;2023-02-26T12:33:09;102564.00;;;2.25;81.61